Time;durP1;ratioP1;P1;durP2;ratioP2;P2;SDS_P1;SDS_P2;PMS_P1;PMS_P2;Temp;Humidity;BMP_temperature;BMP_pressure;BME280_temperature;BME280_humidity;BME280_pressure;Samples;Min_cycle;Max_cycle;Signal;HPM_P1;HPM_P2
2022/12/27 00:00:24;;;;;;;0.60;0.60;;;4.00;99.90;;;;;;4927674;28;20423;-83
2022/12/27 00:02:50;;;;;;;0.70;0.70;;;4.00;99.90;;;;;;4938310;28;20103;-82
2022/12/27 00:05:16;;;;;;;0.70;0.70;;;3.90;99.90;;;;;;4936200;28;20052;-83
2022/12/27 00:07:43;;;;;;;0.70;0.70;;;3.90;99.90;;;;;;4921549;28;20281;-81
2022/12/27 00:10:10;;;;;;;0.70;0.70;;;3.90;99.90;;;;;;4937842;28;20072;-82
2022/12/27 00:12:36;;;;;;;0.70;0.70;;;3.90;99.90;;;;;;4935919;28;20513;-83
2022/12/27 00:15:03;;;;;;;0.70;0.70;;;3.80;99.90;;;;;;4915001;28;21631;-81
2022/12/27 00:17:29;;;;;;;0.70;0.70;;;3.80;99.90;;;;;;4934557;28;20049;-82
2022/12/27 00:19:55;;;;;;;0.70;0.70;;;3.90;99.90;;;;;;4938934;28;20099;-80
2022/12/27 00:22:21;;;;;;;0.70;0.70;;;3.90;99.90;;;;;;4940786;28;20482;-82
2022/12/27 00:24:49;;;;;;;0.70;0.70;;;4.00;99.90;;;;;;4927397;28;20913;-82
2022/12/27 00:27:16;;;;;;;0.60;0.60;;;3.90;99.90;;;;;;4922691;28;20172;-82
2022/12/27 00:29:41;;;;;;;0.70;0.70;;;3.90;99.90;;;;;;4939276;28;20100;-81
2022/12/27 00:32:07;;;;;;;0.70;0.70;;;3.80;99.90;;;;;;4942819;28;20470;-82
2022/12/27 00:34:33;;;;;;;0.70;0.70;;;3.90;99.90;;;;;;4941539;28;20420;-83
2022/12/27 00:36:59;;;;;;;0.70;0.70;;;3.90;99.90;;;;;;4944646;28;20060;-81
2022/12/27 00:39:25;;;;;;;0.70;0.70;;;3.90;99.90;;;;;;4927278;28;20037;-82
2022/12/27 00:41:51;;;;;;;0.60;0.60;;;3.90;99.90;;;;;;4920717;28;20477;-83
2022/12/27 00:44:17;;;;;;;0.70;0.70;;;3.80;99.90;;;;;;4940988;28;20600;-81
2022/12/27 00:46:43;;;;;;;0.77;0.77;;;3.80;99.90;;;;;;4930420;28;20263;-82
2022/12/27 00:49:09;;;;;;;0.70;0.70;;;3.80;99.90;;;;;;4933296;28;20049;-82
2022/12/27 00:51:35;;;;;;;0.70;0.70;;;3.80;99.90;;;;;;4946984;28;20438;-82
2022/12/27 00:54:01;;;;;;;0.70;0.70;;;3.80;99.90;;;;;;4950392;28;20041;-81
2022/12/27 00:56:29;;;;;;;0.65;0.65;;;3.80;99.90;;;;;;4950301;28;20095;-83
2022/12/27 00:58:57;;;;;;;0.70;0.70;;;3.80;99.90;;;;;;4942818;28;20160;-83
2022/12/27 01:01:25;;;;;;;0.70;0.70;;;3.80;99.90;;;;;;4947858;28;20536;-83
2022/12/27 01:03:51;;;;;;;0.70;0.70;;;3.80;99.90;;;;;;4949057;28;20603;-82
2022/12/27 01:06:20;;;;;;;0.70;0.70;;;3.80;99.90;;;;;;4946246;28;20061;-82
2022/12/27 01:08:47;;;;;;;0.70;0.70;;;3.80;99.90;;;;;;4934549;28;20091;-83
2022/12/27 01:11:15;;;;;;;0.70;0.70;;;3.80;99.90;;;;;;4947383;28;20053;-82
2022/12/27 01:13:41;;;;;;;0.70;0.70;;;3.90;99.90;;;;;;4938302;28;20620;-83
2022/12/27 01:16:11;;;;;;;0.70;0.70;;;3.80;99.90;;;;;;4946049;28;20060;-82
2022/12/27 01:18:37;;;;;;;0.63;0.63;;;3.90;99.90;;;;;;4948049;28;20079;-82
2022/12/27 01:21:08;;;;;;;0.70;0.70;;;3.90;99.90;;;;;;4921359;28;20132;-82
2022/12/27 01:23:34;;;;;;;0.70;0.70;;;3.90;99.90;;;;;;4956228;28;21067;-81
2022/12/27 01:26:03;;;;;;;0.70;0.70;;;3.80;99.90;;;;;;4948425;28;20069;-82
2022/12/27 01:28:29;;;;;;;0.70;0.70;;;3.90;99.90;;;;;;4947044;28;20044;-82
2022/12/27 01:30:56;;;;;;;0.70;0.70;;;3.90;99.90;;;;;;4950267;28;20107;-83
2022/12/27 01:33:22;;;;;;;0.70;0.70;;;3.90;99.90;;;;;;4920884;28;20402;-82
2022/12/27 01:35:48;;;;;;;0.70;0.70;;;3.90;99.90;;;;;;4901371;28;20053;-83
2022/12/27 01:38:14;;;;;;;0.60;0.60;;;4.00;99.90;;;;;;4929996;28;20168;-82
2022/12/27 01:40:40;;;;;;;0.65;0.65;;;3.90;99.90;;;;;;4914540;28;20306;-82
2022/12/27 01:43:15;;;;;;;0.70;0.70;;;3.90;99.90;;;;;;4937665;28;20072;-81
2022/12/27 01:45:42;;;;;;;0.70;0.70;;;3.80;99.90;;;;;;4934117;28;20045;-81
2022/12/27 01:48:22;;;;;;;0.70;0.70;;;3.80;99.90;;;;;;4933164;28;20077;-82
2022/12/27 01:50:54;;;;;;;0.70;0.70;;;3.70;99.90;;;;;;4942127;28;20056;-82
2022/12/27 01:53:24;;;;;;;0.70;0.70;;;3.70;99.90;;;;;;4933773;28;20934;-82
2022/12/27 01:56:06;;;;;;;0.70;0.70;;;3.80;99.90;;;;;;4934124;28;20132;-83
2022/12/27 01:58:39;;;;;;;0.70;0.70;;;3.80;99.90;;;;;;4942415;28;21021;-80
2022/12/27 02:01:10;;;;;;;0.70;0.70;;;3.80;99.90;;;;;;4952940;28;20131;-81
2022/12/27 02:03:47;;;;;;;0.70;0.70;;;3.80;99.90;;;;;;4953863;28;20053;-80
2022/12/27 02:06:14;;;;;;;0.70;0.70;;;3.70;99.90;;;;;;4943081;28;20505;-82
2022/12/27 02:08:50;;;;;;;0.70;0.70;;;3.80;99.90;;;;;;4939208;28;20053;-81
2022/12/27 02:11:49;;;;;;;0.70;0.70;;;3.80;99.90;;;;;;4960457;28;21023;-82
2022/12/27 02:14:05;;;;;;;0.70;0.70;;;3.90;99.90;;;;;;4936448;28;20057;-81
2022/12/27 02:16:31;;;;;;;0.70;0.70;;;3.80;99.90;;;;;;4942378;28;20191;-81
2022/12/27 02:18:57;;;;;;;0.70;0.70;;;3.90;99.90;;;;;;4928102;28;20075;-81
2022/12/27 02:22:09;;;;;;;0.70;0.70;;;4.10;99.90;;;;;;4924681;28;20049;-81
2022/12/27 02:25:14;;;;;;;0.70;0.70;;;4.00;99.90;;;;;;4863958;28;20145;-81
2022/12/27 02:27:40;;;;;;;0.70;0.70;;;3.90;99.90;;;;;;4834153;28;20572;-82
2022/12/27 02:30:08;;;;;;;0.70;0.70;;;4.00;99.90;;;;;;4922887;28;20435;-81
2022/12/27 02:32:44;;;;;;;0.70;0.70;;;3.90;99.90;;;;;;4944960;28;20840;-81
2022/12/27 02:35:40;;;;;;;0.70;0.70;;;4.00;99.90;;;;;;4933383;28;20823;-80
2022/12/27 02:38:16;;;;;;;0.70;0.70;;;3.90;99.90;;;;;;4950217;28;20580;-80
2022/12/27 02:53:03;;;;;;;0.70;0.70;;;3.80;99.90;;;;;;4947022;28;20065;-82
2022/12/27 03:03:19;;;;;;;0.70;0.70;;;3.80;99.90;;;;;;4942046;28;21048;-81
2022/12/27 03:17:55;;;;;;;0.70;0.70;;;3.80;99.90;;;;;;4944491;28;21141;-80
2022/12/27 03:25:56;;;;;;;0.70;0.70;;;3.90;99.90;;;;;;4956662;28;20179;-80
2022/12/27 03:34:34;;;;;;;0.70;0.70;;;4.00;99.90;;;;;;4942111;28;20065;-81
2022/12/27 03:40:14;;;;;;;0.70;0.70;;;4.10;99.90;;;;;;4942045;28;20053;-81
2022/12/27 03:49:13;;;;;;;0.68;0.68;;;4.00;99.90;;;;;;4951138;28;20137;-79
2022/12/27 03:51:48;;;;;;;0.63;0.63;;;4.20;99.90;;;;;;4952279;28;20617;-81
2022/12/27 03:54:31;;;;;;;0.73;0.73;;;4.20;99.90;;;;;;4949852;28;20875;-81
2022/12/27 03:57:00;;;;;;;0.70;0.70;;;4.30;99.90;;;;;;4952780;28;20566;-81
2022/12/27 03:59:32;;;;;;;0.70;0.70;;;4.40;99.90;;;;;;4947898;28;20158;-80
2022/12/27 04:01:58;;;;;;;0.70;0.70;;;4.30;99.90;;;;;;4930286;28;20053;-81
2022/12/27 04:04:24;;;;;;;0.65;0.65;;;4.40;99.90;;;;;;4938714;28;20830;-81
2022/12/27 04:06:50;;;;;;;0.70;0.70;;;4.40;99.90;;;;;;4939951;28;20132;-82
2022/12/27 04:36:42;;;;;;;0.60;0.60;;;5.20;99.90;;;;;;4939967;28;20049;-81
2022/12/27 04:39:08;;;;;;;0.70;0.70;;;5.10;99.90;;;;;;4962253;28;20179;-82
2022/12/27 04:55:27;;;;;;;0.70;0.70;;;4.80;99.90;;;;;;4938750;28;20143;-81
2022/12/27 04:57:54;;;;;;;0.60;0.60;;;4.70;99.90;;;;;;4953756;28;20076;-82
2022/12/27 05:03:10;;;;;;;0.60;0.60;;;4.70;99.90;;;;;;4941526;28;20053;-81
2022/12/27 05:05:38;;;;;;;0.60;0.60;;;4.70;99.90;;;;;;4943668;28;20077;-81
2022/12/27 05:16:19;;;;;;;0.70;0.70;;;4.70;99.90;;;;;;4936050;28;20053;-81
2022/12/27 05:18:45;;;;;;;0.70;0.70;;;4.60;99.90;;;;;;4939984;28;20439;-82
2022/12/27 05:21:11;;;;;;;0.70;0.70;;;4.60;99.90;;;;;;4942804;28;20186;-80
2022/12/27 05:26:25;;;;;;;0.70;0.70;;;4.60;99.90;;;;;;4947096;28;20053;-80
2022/12/27 05:28:54;;;;;;;0.70;0.70;;;4.60;99.90;;;;;;4930270;28;20045;-82
2022/12/27 05:31:22;;;;;;;0.70;0.70;;;4.60;99.90;;;;;;4947834;28;20432;-82
2022/12/27 05:33:49;;;;;;;0.65;0.65;;;4.60;99.90;;;;;;4940439;28;20703;-81
2022/12/27 05:36:16;;;;;;;0.70;0.70;;;4.50;99.90;;;;;;4935910;28;20288;-81
2022/12/27 05:38:42;;;;;;;0.70;0.70;;;4.50;99.90;;;;;;4932634;28;20060;-81
2022/12/27 05:41:08;;;;;;;0.60;0.60;;;4.70;99.90;;;;;;4944751;28;20201;-81
2022/12/27 05:43:34;;;;;;;0.60;0.60;;;4.80;99.90;;;;;;4923868;28;20061;-80
2022/12/27 05:46:14;;;;;;;0.70;0.70;;;4.70;99.90;;;;;;4921603;28;20398;-82
2022/12/27 05:48:40;;;;;;;0.70;0.70;;;4.90;99.90;;;;;;4940517;28;20471;-81
2022/12/27 05:51:09;;;;;;;0.65;0.65;;;4.90;99.90;;;;;;4944674;28;20147;-82
2022/12/27 05:53:36;;;;;;;0.70;0.70;;;4.80;99.90;;;;;;4939417;28;20053;-82
2022/12/27 05:56:02;;;;;;;0.70;0.70;;;4.80;99.90;;;;;;4943508;28;20063;-81
2022/12/27 05:58:29;;;;;;;0.68;0.68;;;4.80;99.90;;;;;;4943182;28;20441;-80
2022/12/27 06:00:55;;;;;;;0.60;0.60;;;4.50;99.90;;;;;;4948775;28;20099;-81
2022/12/27 06:03:21;;;;;;;0.63;0.63;;;4.40;99.90;;;;;;4945965;28;20487;-80
2022/12/27 06:05:47;;;;;;;0.60;0.60;;;4.50;99.90;;;;;;4944193;28;20053;-79
2022/12/27 06:08:13;;;;;;;0.60;0.60;;;4.50;99.90;;;;;;4948526;28;20048;-80
2022/12/27 06:10:40;;;;;;;0.70;0.70;;;4.60;99.90;;;;;;4948331;28;20631;-80
2022/12/27 06:13:06;;;;;;;0.68;0.68;;;4.60;99.90;;;;;;4951373;28;20499;-81
2022/12/27 06:15:32;;;;;;;0.60;0.60;;;4.60;99.90;;;;;;4924132;28;20056;-81
2022/12/27 06:17:59;;;;;;;0.70;0.70;;;4.70;99.90;;;;;;4921311;28;20048;-81
2022/12/27 06:20:25;;;;;;;0.60;0.60;;;4.50;99.90;;;;;;4924932;28;20087;-81
2022/12/27 06:22:51;;;;;;;0.70;0.70;;;4.60;99.90;;;;;;4938422;28;20863;-81
2022/12/27 06:25:17;;;;;;;0.63;0.63;;;4.50;99.90;;;;;;4948748;28;20409;-81
2022/12/27 06:27:43;;;;;;;0.63;0.63;;;4.60;99.90;;;;;;4924683;28;20405;-82
2022/12/27 06:30:11;;;;;;;0.70;0.70;;;4.80;99.90;;;;;;4944513;28;20060;-80
2022/12/27 06:32:37;;;;;;;0.60;0.60;;;4.70;99.90;;;;;;4937990;28;20057;-80
2022/12/27 06:35:04;;;;;;;0.70;0.70;;;4.70;99.90;;;;;;4938646;28;20046;-81
2022/12/27 06:37:31;;;;;;;0.60;0.60;;;4.60;99.90;;;;;;4940135;28;20053;-82
2022/12/27 06:39:57;;;;;;;0.60;0.60;;;4.60;99.90;;;;;;4940857;28;20053;-81
2022/12/27 06:42:23;;;;;;;0.60;0.60;;;4.70;99.90;;;;;;4940286;28;20046;-81
2022/12/27 06:44:48;;;;;;;0.70;0.70;;;4.70;99.90;;;;;;4959396;28;20122;-81
2022/12/27 06:47:14;;;;;;;0.70;0.70;;;4.70;99.90;;;;;;4948663;28;20897;-80
2022/12/27 06:49:40;;;;;;;0.70;0.70;;;4.70;99.90;;;;;;4947845;28;20052;-80
2022/12/27 06:52:06;;;;;;;0.70;0.70;;;4.70;99.90;;;;;;4925417;28;20048;-80
2022/12/27 06:54:32;;;;;;;0.60;0.60;;;4.60;99.90;;;;;;4952179;28;20048;-81
2022/12/27 06:56:58;;;;;;;0.60;0.60;;;4.60;99.90;;;;;;4946494;28;21056;-80
2022/12/27 06:59:23;;;;;;;0.60;0.60;;;4.60;99.90;;;;;;4939760;28;20045;-81
2022/12/27 07:01:49;;;;;;;0.60;0.60;;;4.60;99.90;;;;;;4938993;28;20049;-81
2022/12/27 07:04:16;;;;;;;0.63;0.63;;;4.70;99.90;;;;;;4939940;28;20453;-81
2022/12/27 07:06:42;;;;;;;0.60;0.60;;;4.80;99.90;;;;;;4946357;28;21313;-81
2022/12/27 07:09:08;;;;;;;0.70;0.70;;;4.70;99.90;;;;;;4926573;28;20045;-80
2022/12/27 07:11:35;;;;;;;0.70;0.70;;;4.70;99.90;;;;;;4941709;28;20890;-80
2022/12/27 07:14:02;;;;;;;0.70;0.70;;;4.90;99.90;;;;;;4944937;28;20049;-80
2022/12/27 07:16:29;;;;;;;0.70;0.70;;;4.90;99.90;;;;;;4943239;28;20056;-80
2022/12/27 07:18:57;;;;;;;0.60;0.60;;;5.00;99.90;;;;;;4938254;28;20872;-80
2022/12/27 07:21:26;;;;;;;0.60;0.60;;;4.90;99.90;;;;;;4946160;28;20345;-80
2022/12/27 07:23:52;;;;;;;0.60;0.60;;;4.90;99.90;;;;;;4947095;28;20049;-80
2022/12/27 07:26:21;;;;;;;0.60;0.60;;;4.80;99.90;;;;;;4950185;28;20075;-80
2022/12/27 07:28:47;;;;;;;0.60;0.60;;;4.70;99.90;;;;;;4943856;28;20566;-80
2022/12/27 07:31:16;;;;;;;0.60;0.60;;;4.60;99.90;;;;;;4950042;28;20895;-80
2022/12/27 07:33:42;;;;;;;0.60;0.60;;;4.40;99.90;;;;;;4945056;28;20048;-80
2022/12/27 07:36:15;;;;;;;0.60;0.60;;;4.40;99.90;;;;;;4947069;28;20301;-80
2022/12/27 07:38:41;;;;;;;0.60;0.60;;;4.30;99.90;;;;;;4948467;28;20674;-80
2022/12/27 07:41:08;;;;;;;0.60;0.60;;;4.50;99.90;;;;;;4946755;28;20072;-80
2022/12/27 07:43:35;;;;;;;0.60;0.60;;;4.50;99.90;;;;;;4950645;28;20449;-81
2022/12/27 07:46:06;;;;;;;0.60;0.60;;;4.50;99.90;;;;;;4944451;28;20049;-80
2022/12/27 07:48:32;;;;;;;0.60;0.60;;;4.50;99.90;;;;;;4940483;28;20057;-81
2022/12/27 07:50:58;;;;;;;0.60;0.60;;;4.70;99.90;;;;;;4932142;28;20887;-80
2022/12/27 07:53:24;;;;;;;0.70;0.70;;;4.70;99.90;;;;;;4927964;28;20052;-81
2022/12/27 07:55:50;;;;;;;0.68;0.68;;;4.80;99.90;;;;;;4942134;28;21297;-79
2022/12/27 07:58:17;;;;;;;0.60;0.60;;;4.80;99.90;;;;;;4943954;28;20690;-80
2022/12/27 08:00:45;;;;;;;0.70;0.70;;;4.80;99.90;;;;;;4945380;28;20990;-80
2022/12/27 08:03:11;;;;;;;0.70;0.70;;;4.90;99.90;;;;;;4942868;28;20583;-80
2022/12/27 08:05:37;;;;;;;0.70;0.70;;;4.90;99.90;;;;;;4948021;28;20758;-80
2022/12/27 08:08:03;;;;;;;0.63;0.63;;;5.00;99.90;;;;;;4946671;28;20564;-80
2022/12/27 08:10:29;;;;;;;0.70;0.70;;;5.00;99.90;;;;;;4949985;28;20926;-81
2022/12/27 08:12:54;;;;;;;0.70;0.70;;;5.10;99.90;;;;;;4947159;28;20043;-80
2022/12/27 08:15:20;;;;;;;0.63;0.63;;;5.10;99.90;;;;;;4951644;28;20446;-80
2022/12/27 08:17:46;;;;;;;0.60;0.60;;;5.20;99.90;;;;;;4941176;28;20405;-81
2022/12/27 08:20:13;;;;;;;0.60;0.60;;;5.20;99.90;;;;;;4944430;28;20048;-82
2022/12/27 08:22:39;;;;;;;0.60;0.60;;;5.20;99.90;;;;;;4944238;28;20059;-81
2022/12/27 08:25:06;;;;;;;0.70;0.70;;;5.30;99.90;;;;;;4950614;28;20412;-81
2022/12/27 08:27:32;;;;;;;0.60;0.60;;;5.20;99.90;;;;;;4949057;28;20630;-80
2022/12/27 08:29:58;;;;;;;0.70;0.70;;;5.20;99.90;;;;;;4948927;28;20299;-82
2022/12/27 08:32:24;;;;;;;0.60;0.60;;;5.20;99.90;;;;;;4931260;28;20077;-81
2022/12/27 08:34:50;;;;;;;0.60;0.60;;;5.10;99.90;;;;;;4929115;28;21657;-82
2022/12/27 08:37:16;;;;;;;0.70;0.70;;;5.20;99.90;;;;;;4938941;28;20608;-80
2022/12/27 08:39:42;;;;;;;0.60;0.60;;;4.90;99.90;;;;;;4942369;28;20487;-82
2022/12/27 08:42:12;;;;;;;0.70;0.70;;;4.90;99.90;;;;;;4927794;28;20739;-81
2022/12/27 08:44:38;;;;;;;0.70;0.70;;;4.90;99.90;;;;;;4957870;28;20905;-80
2022/12/27 08:47:04;;;;;;;0.60;0.60;;;5.00;99.90;;;;;;4927489;28;20103;-80
2022/12/27 08:49:30;;;;;;;0.60;0.60;;;5.00;99.90;;;;;;4943386;28;20049;-81
2022/12/27 08:51:56;;;;;;;0.60;0.60;;;5.10;99.90;;;;;;4951704;28;20470;-81
2022/12/27 08:54:22;;;;;;;0.60;0.60;;;5.10;99.90;;;;;;4947444;28;20053;-81
2022/12/27 08:56:48;;;;;;;0.70;0.70;;;5.40;99.90;;;;;;4942030;28;20630;-81
2022/12/27 08:59:15;;;;;;;0.70;0.70;;;5.70;99.90;;;;;;4941799;28;20300;-79
2022/12/27 09:01:41;;;;;;;0.60;0.60;;;5.70;99.90;;;;;;4945985;28;20493;-80
2022/12/27 09:04:07;;;;;;;0.60;0.60;;;5.70;99.90;;;;;;4928761;28;20084;-82
2022/12/27 09:06:33;;;;;;;0.60;0.60;;;5.80;99.90;;;;;;4943318;28;20392;-81
2022/12/27 09:09:00;;;;;;;0.60;0.60;;;5.70;99.90;;;;;;4946708;28;20893;-80
2022/12/27 09:11:28;;;;;;;0.60;0.60;;;5.80;99.90;;;;;;4927908;28;20045;-81
2022/12/27 09:13:55;;;;;;;0.60;0.60;;;5.70;99.90;;;;;;4938576;28;20053;-82
2022/12/27 09:16:23;;;;;;;0.60;0.60;;;5.80;99.90;;;;;;4943629;28;20291;-83
2022/12/27 09:18:52;;;;;;;0.60;0.60;;;5.80;99.90;;;;;;4943701;28;21335;-81
2022/12/27 09:21:20;;;;;;;0.60;0.60;;;5.90;99.90;;;;;;4944596;28;20484;-82
2022/12/27 09:23:46;;;;;;;0.60;0.60;;;5.70;99.90;;;;;;4943253;28;20127;-82
2022/12/27 09:26:16;;;;;;;0.60;0.60;;;5.60;99.90;;;;;;4941867;28;20778;-83
2022/12/27 09:28:42;;;;;;;0.60;0.60;;;5.70;99.90;;;;;;4947486;28;20064;-81
2022/12/27 09:31:10;;;;;;;0.60;0.60;;;5.70;99.90;;;;;;4946278;28;20556;-82
2022/12/27 09:33:36;;;;;;;0.60;0.60;;;5.60;99.90;;;;;;4951254;28;20417;-82
2022/12/27 09:36:09;;;;;;;0.60;0.60;;;5.50;99.90;;;;;;4939505;28;20065;-82
2022/12/27 09:38:35;;;;;;;0.60;0.60;;;5.90;99.90;;;;;;4945814;28;20053;-83
2022/12/27 09:41:05;;;;;;;0.60;0.60;;;6.00;99.90;;;;;;4949622;28;20068;-83
2022/12/27 09:43:54;;;;;;;0.60;0.60;;;6.00;99.90;;;;;;4948053;28;20377;-81
2022/12/27 09:46:26;;;;;;;0.60;0.60;;;6.00;99.90;;;;;;4947456;28;20556;-83
2022/12/27 09:48:54;;;;;;;0.60;0.60;;;6.10;99.90;;;;;;4932194;28;20056;-81
2022/12/27 09:51:35;;;;;;;0.60;0.60;;;6.00;99.90;;;;;;4947010;28;20053;-81
2022/12/27 09:54:17;;;;;;;0.60;0.60;;;6.10;99.90;;;;;;4957794;28;20048;-80
2022/12/27 09:56:44;;;;;;;0.60;0.60;;;6.00;99.90;;;;;;4950025;28;20053;-81
2022/12/27 09:59:35;;;;;;;0.60;0.60;;;6.00;99.90;;;;;;4936366;28;20912;-81
2022/12/27 10:02:03;;;;;;;0.70;0.70;;;6.30;99.90;;;;;;4942535;28;20106;-84
2022/12/27 10:04:33;;;;;;;0.68;0.68;;;6.50;99.90;;;;;;4957194;28;20625;-81
2022/12/27 10:07:14;;;;;;;0.60;0.60;;;6.80;99.90;;;;;;4928948;28;20095;-81
2022/12/27 10:09:50;;;;;;;0.60;0.60;;;7.10;99.90;;;;;;4968793;28;20055;-82
2022/12/27 10:12:37;;;;;;;0.70;0.70;;;7.30;99.90;;;;;;4935101;28;20787;-81
2022/12/27 10:15:42;;;;;;;0.60;0.60;;;7.30;99.90;;;;;;4949363;28;20049;-81
2022/12/27 10:18:31;;;;;;;0.60;0.60;;;7.20;99.90;;;;;;4959492;28;20545;-82
2022/12/27 10:21:18;;;;;;;0.60;0.60;;;7.10;99.90;;;;;;4952991;28;20487;-81
2022/12/27 10:24:19;;;;;;;0.60;0.60;;;7.10;99.90;;;;;;4955293;28;20403;-81
2022/12/27 10:26:45;;;;;;;9.38;8.85;;;6.80;99.90;;;;;;4947830;28;20053;-82
2022/12/27 10:29:20;;;;;;;0.60;0.60;;;6.80;99.90;;;;;;4936302;28;20138;-79
2022/12/27 10:31:45;;;;;;;0.60;0.60;;;6.90;99.90;;;;;;4945192;28;20049;-79
2022/12/27 10:34:15;;;;;;;0.60;0.60;;;7.00;99.90;;;;;;4950142;28;20432;-83
2022/12/27 10:36:43;;;;;;;0.60;0.60;;;7.10;99.90;;;;;;4948504;28;20462;-81
2022/12/27 10:39:19;;;;;;;0.60;0.60;;;7.10;99.90;;;;;;4947835;28;20513;-82
2022/12/27 10:42:13;;;;;;;0.60;0.60;;;7.10;99.90;;;;;;4951598;28;20060;-81
2022/12/27 10:44:39;;;;;;;0.60;0.60;;;7.20;99.90;;;;;;4960028;28;20049;-82
2022/12/27 10:47:05;;;;;;;0.60;0.60;;;7.10;99.90;;;;;;4940644;28;20780;-82
2022/12/27 10:49:33;;;;;;;0.60;0.60;;;7.20;99.90;;;;;;4947496;28;20048;-81
2022/12/27 10:52:30;;;;;;;0.60;0.60;;;7.20;99.90;;;;;;4936336;28;21062;-81
2022/12/27 10:54:56;;;;;;;0.60;0.60;;;7.20;99.90;;;;;;4944712;28;20513;-81
2022/12/27 10:57:31;;;;;;;0.60;0.60;;;7.30;99.90;;;;;;4959012;28;20095;-80
2022/12/27 11:00:16;;;;;;;0.60;0.60;;;7.30;99.90;;;;;;4950093;28;20748;-80
2022/12/27 11:02:53;;;;;;;0.50;0.50;;;7.30;99.90;;;;;;4946381;28;20790;-80
2022/12/27 11:05:24;;;;;;;0.60;0.60;;;7.20;99.90;;;;;;4950454;28;20509;-81
2022/12/27 11:07:51;;;;;;;0.50;0.50;;;7.00;99.90;;;;;;4955068;28;20635;-81
2022/12/27 11:10:25;;;;;;;0.60;0.60;;;6.90;99.90;;;;;;4944291;28;20380;-80
2022/12/27 11:13:02;;;;;;;0.60;0.60;;;6.90;99.90;;;;;;4947942;28;20387;-79
2022/12/27 11:15:40;;;;;;;0.60;0.60;;;6.80;99.90;;;;;;4940323;28;20056;-80
2022/12/27 11:18:19;;;;;;;0.60;0.60;;;6.80;99.90;;;;;;4952739;28;20086;-78
2022/12/27 11:21:03;;;;;;;0.60;0.60;;;7.00;99.90;;;;;;4947961;28;20068;-80
2022/12/27 11:23:36;;;;;;;0.60;0.60;;;7.20;99.90;;;;;;4954731;28;20065;-80
2022/12/27 11:26:05;;;;;;;0.60;0.60;;;7.40;99.90;;;;;;4947957;28;20057;-81
2022/12/27 11:28:38;;;;;;;0.60;0.60;;;7.60;99.90;;;;;;4951445;28;20303;-81
2022/12/27 11:31:09;;;;;;;0.70;0.70;;;7.80;99.90;;;;;;4948052;28;20117;-81
2022/12/27 11:33:45;;;;;;;0.60;0.60;;;7.90;99.90;;;;;;4963557;28;20052;-80
2022/12/27 11:36:12;;;;;;;0.60;0.60;;;8.00;99.90;;;;;;4950065;28;20088;-80
2022/12/27 11:38:43;;;;;;;0.60;0.60;;;8.00;99.90;;;;;;4958850;28;20057;-81
2022/12/27 11:41:32;;;;;;;0.60;0.60;;;7.90;99.90;;;;;;4947928;28;20485;-81
2022/12/27 11:44:25;;;;;;;0.60;0.60;;;7.90;99.90;;;;;;4942026;28;20057;-81
2022/12/27 11:46:57;;;;;;;0.60;0.60;;;7.70;99.90;;;;;;4944598;28;20248;-82
2022/12/27 11:49:34;;;;;;;0.60;0.60;;;7.60;99.90;;;;;;4943912;28;20510;-78
2022/12/27 11:52:40;;;;;;;0.60;0.60;;;7.60;99.90;;;;;;4942177;28;20060;-82
2022/12/27 11:55:12;;;;;;;0.60;0.60;;;7.40;99.90;;;;;;4943672;28;20128;-80
2022/12/27 11:58:07;;;;;;;0.60;0.60;;;7.30;99.90;;;;;;4939503;28;20324;-81
2022/12/27 12:00:48;;;;;;;0.60;0.60;;;7.20;99.90;;;;;;4946450;28;20053;-83
2022/12/27 12:03:43;;;;;;;0.60;0.60;;;7.20;99.90;;;;;;4946279;28;20621;-81
2022/12/27 12:06:19;;;;;;;0.60;0.60;;;7.10;99.90;;;;;;4942616;28;20435;-80
2022/12/27 12:09:20;;;;;;;0.60;0.60;;;7.10;99.90;;;;;;4939563;28;20582;-82
2022/12/27 12:12:25;;;;;;;0.60;0.60;;;7.10;99.90;;;;;;4932844;28;20048;-81
2022/12/27 12:14:57;;;;;;;0.60;0.60;;;7.00;99.90;;;;;;4949411;28;20049;-82
2022/12/27 12:17:40;;;;;;;0.60;0.60;;;7.00;99.90;;;;;;4931419;28;20810;-81
2022/12/27 12:20:22;;;;;;;0.60;0.60;;;7.00;99.90;;;;;;4951172;28;20061;-81
2022/12/27 12:23:11;;;;;;;0.60;0.60;;;7.10;99.90;;;;;;4961157;28;20639;-81
2022/12/27 12:26:09;;;;;;;0.60;0.60;;;7.10;99.90;;;;;;4944842;28;20048;-82
2022/12/27 12:29:12;;;;;;;0.60;0.60;;;7.10;99.90;;;;;;4933966;28;20332;-81
2022/12/27 12:31:48;;;;;;;0.60;0.60;;;7.10;99.90;;;;;;4954425;28;20509;-80
2022/12/27 12:34:42;;;;;;;0.60;0.60;;;7.20;99.90;;;;;;4950949;28;20275;-83
2022/12/27 12:37:26;;;;;;;0.60;0.60;;;7.10;99.90;;;;;;4945048;28;20135;-81
2022/12/27 12:40:13;;;;;;;0.70;0.70;;;7.10;99.90;;;;;;4958861;28;20041;-83
2022/12/27 12:42:56;;;;;;;0.60;0.60;;;7.00;99.90;;;;;;4943020;28;20558;-80
2022/12/27 12:45:39;;;;;;;0.60;0.60;;;7.00;99.90;;;;;;4947876;28;20451;-80
2022/12/27 12:48:26;;;;;;;0.60;0.60;;;7.00;99.90;;;;;;4948693;28;20041;-82
2022/12/27 12:51:43;;;;;;;0.70;0.70;;;7.00;99.90;;;;;;4946376;28;20040;-80
2022/12/27 12:54:43;;;;;;;0.60;0.60;;;7.00;99.90;;;;;;4924003;28;20843;-80
2022/12/27 12:57:26;;;;;;;0.70;0.70;;;6.90;99.90;;;;;;4943824;28;20127;-80
2022/12/27 13:00:20;;;;;;;0.60;0.60;;;6.80;99.90;;;;;;4951433;28;20780;-82
2022/12/27 13:03:16;;;;;;;0.60;0.60;;;6.90;99.90;;;;;;4941191;28;20218;-80
2022/12/27 13:05:56;;;;;;;0.60;0.60;;;6.90;99.90;;;;;;4945998;28;20651;-81
2022/12/27 13:08:31;;;;;;;0.60;0.60;;;7.10;99.90;;;;;;4945772;28;20052;-80
2022/12/27 13:10:57;;;;;;;0.60;0.60;;;7.10;99.90;;;;;;4958038;28;20160;-82
2022/12/27 13:13:57;;;;;;;0.60;0.60;;;7.10;99.90;;;;;;4950305;28;20041;-81
2022/12/27 13:17:03;;;;;;;0.60;0.60;;;7.10;99.90;;;;;;4952112;28;20426;-82
2022/12/27 13:19:32;;;;;;;0.60;0.60;;;7.10;99.90;;;;;;4948410;28;20053;-81
2022/12/27 13:22:28;;;;;;;0.60;0.60;;;7.10;99.90;;;;;;4950991;28;20106;-80
2022/12/27 13:25:09;;;;;;;0.60;0.60;;;7.10;99.90;;;;;;4948551;28;20041;-80
2022/12/27 13:27:47;;;;;;;0.70;0.70;;;7.10;99.90;;;;;;4952287;28;20054;-80
2022/12/27 13:30:23;;;;;;;0.60;0.60;;;7.10;99.90;;;;;;4944845;28;20483;-81
2022/12/27 13:33:06;;;;;;;0.60;0.60;;;7.10;99.90;;;;;;4985116;28;20049;-81
2022/12/27 13:36:08;;;;;;;0.60;0.60;;;7.10;99.90;;;;;;4967728;28;20120;-82
2022/12/27 13:38:50;;;;;;;0.60;0.60;;;7.00;99.90;;;;;;4924531;28;20075;-80
2022/12/27 13:41:33;;;;;;;0.70;0.70;;;6.90;99.90;;;;;;4938026;28;20044;-80
2022/12/27 13:44:28;;;;;;;0.70;0.70;;;6.90;99.90;;;;;;4952716;28;20052;-81
2022/12/27 13:47:32;;;;;;;0.60;0.60;;;6.90;99.90;;;;;;4954191;28;20128;-81
2022/12/27 13:50:17;;;;;;;0.60;0.60;;;6.90;99.90;;;;;;4951543;28;20657;-81
2022/12/27 13:52:55;;;;;;;0.60;0.60;;;7.00;99.90;;;;;;4958078;28;20647;-81
2022/12/27 13:55:45;;;;;;;0.60;0.60;;;7.10;99.90;;;;;;4948677;28;20816;-81
2022/12/27 13:58:24;;;;;;;0.60;0.60;;;7.10;99.90;;;;;;4940664;28;20215;-81
2022/12/27 14:01:15;;;;;;;0.60;0.60;;;7.10;99.90;;;;;;4953782;28;20049;-81
2022/12/27 14:03:40;;;;;;;0.60;0.60;;;7.00;99.90;;;;;;4948674;28;20892;-80
2022/12/27 14:06:34;;;;;;;0.60;0.60;;;7.00;99.90;;;;;;4949153;28;20183;-82
2022/12/27 14:09:29;;;;;;;0.60;0.60;;;7.00;99.90;;;;;;4950615;28;20041;-81
2022/12/27 14:12:20;;;;;;;0.60;0.60;;;7.00;99.90;;;;;;4944787;28;20059;-80
2022/12/27 14:14:47;;;;;;;0.63;0.63;;;7.00;99.90;;;;;;4956511;28;20756;-80
2022/12/27 14:17:39;;;;;;;0.60;0.60;;;7.00;99.90;;;;;;4944866;28;20782;-81
2022/12/27 14:20:26;;;;;;;0.60;0.60;;;7.00;99.90;;;;;;4953799;28;20049;-80
2022/12/27 14:23:22;;;;;;;0.60;0.60;;;7.00;99.90;;;;;;4944010;28;21098;-81
2022/12/27 14:26:37;;;;;;;0.60;0.60;;;6.90;99.90;;;;;;4940974;28;20053;-81
2022/12/27 14:29:40;;;;;;;0.60;0.60;;;6.90;99.90;;;;;;4956488;28;20790;-80
2022/12/27 14:32:25;;;;;;;0.60;0.60;;;6.80;99.90;;;;;;4942603;28;20833;-81
2022/12/27 14:35:18;;;;;;;0.60;0.60;;;6.70;99.90;;;;;;4942520;28;20822;-82
2022/12/27 14:37:53;;;;;;;0.70;0.70;;;6.80;99.90;;;;;;4935894;28;20057;-81
2022/12/27 14:40:28;;;;;;;0.60;0.60;;;6.70;99.90;;;;;;4929250;28;20102;-81
2022/12/27 14:43:19;;;;;;;0.60;0.60;;;6.70;99.90;;;;;;4940046;28;20045;-80
2022/12/27 14:46:03;;;;;;;0.60;0.60;;;6.60;99.90;;;;;;4948011;28;20517;-80
2022/12/27 14:48:43;;;;;;;;;;;6.60;99.90;;;;;;4939793;28;20046;-81
2022/12/27 14:51:09;;;;;;;0.60;0.60;;;6.50;99.90;;;;;;4949872;28;20341;-81
2022/12/27 14:54:19;;;;;;;0.60;0.60;;;6.50;99.90;;;;;;4947084;28;20151;-80
2022/12/27 14:57:13;;;;;;;0.60;0.60;;;6.50;99.90;;;;;;4919143;28;20053;-78
2022/12/27 15:00:14;;;;;;;0.60;0.60;;;6.50;99.90;;;;;;4941838;28;20059;-78
2022/12/27 15:02:52;;;;;;;0.60;0.60;;;6.40;99.90;;;;;;4953513;28;20594;-78
2022/12/27 15:05:31;;;;;;;0.60;0.60;;;6.30;99.90;;;;;;4950001;28;20115;-78
2022/12/27 15:08:35;;;;;;;0.60;0.60;;;6.40;99.90;;;;;;4948702;28;20737;-78
2022/12/27 15:11:22;;;;;;;0.60;0.60;;;6.30;99.90;;;;;;4946677;28;20053;-81
2022/12/27 15:14:31;;;;;;;0.60;0.60;;;6.20;99.90;;;;;;4946282;28;20045;-80
2022/12/27 15:17:19;;;;;;;0.65;0.65;;;6.20;99.90;;;;;;4934298;28;20504;-80
2022/12/27 15:20:07;;;;;;;0.60;0.60;;;6.20;99.90;;;;;;4948832;28;20060;-80
2022/12/27 15:23:12;;;;;;;0.60;0.60;;;6.10;99.90;;;;;;4944118;28;20052;-80